Date,TemperatureHighF,TemperatureAvgF,TemperatureLowF,DewpointHighF,DewpointAvgF,DewpointLowF,HumidityHigh,HumidityAvg,HumidityLow,PressureMaxIn,PressureMinIn,WindSpeedMaxMPH,WindSpeedAvgMPH,GustSpeedMaxMPH,PrecipitationSumIn
2013-1-22,12,12,11,-4,-4,-5,49,48,47,30.01,29.63,7,3,8,0.00
2013-1-23,21,15,8,11,-3,-7,74,46,29,29.87,29.25,12,4,12,0.00
2013-1-24,26,16,12,12,6,3,79,65,45,30.22,29.18,17,4,17,0.00
2013-1-25,25,20,16,19,10,1,85,67,46,29.88,29.38,8,3,8,0.00
2013-1-26,31,24,12,21,16,6,84,72,59,30.22,29.16,11,3,11,0.00
2013-1-27,41,24,8,30,15,2,92,70,45,30.19,29.46,5,2,9,0.14
2013-1-28,51,43,32,49,43,31,99,97,91,29.69,29.07,11,5,14,0.13
2013-1-29,65,56,48,56,52,48,99,87,70,29.55,29.17,15,5,17,0.01
2013-1-30,63,54,34,56,50,28,98,86,73,29.29,28.64,14,7,21,0.59
2013-1-31,34,26,18,27,16,7,77,66,46,29.72,28.90,14,1,17,0.00
2013-2-1,21,13,7,8,-1,-6,65,53,41,30.03,29.12,0,0,0,0.00
2013-2-2,28,20,8,21,13,-2,82,71,59,29.86,29.26,0,0,8,0.00
2013-2-3,25,21,14,18,12,7,78,70,55,29.87,29.00,0,0,0,0.00
2013-2-4,31,23,12,26,16,6,89,76,49,29.56,28.93,8,1,10,0.00
2013-2-5,34,29,24,28,22,18,90,76,55,29.75,28.98,7,3,8,0.02
2013-2-6,47,31,20,28,18,11,83,62,30,29.97,29.31,8,3,11,0.04
2013-2-7,54,38,19,32,25,11,78,61,36,29.64,29.16,6,2,8,0.00
2013-2-8,44,35,27,39,29,18,96,77,65,29.90,29.03,21,4,21,0.15
2013-2-9,43,30,15,20,15,9,81,54,33,29.90,29.65,4,1,6,0.00
2013-2-10,52,39,24,41,23,14,82,53,32,29.65,29.27,17,4,17,0.00
2013-2-11,53,45,37,48,35,24,95,69,46,29.62,29.00,21,8,26,0.01
2013-2-12,44,35,32,26,23,22,69,63,50,29.81,29.32,12,5,14,0.00
2013-2-13,34,28,22,26,23,19,87,80,69,29.40,28.88,7,2,7,0.00
2013-2-14,46,34,24,37,29,21,93,82,69,29.54,28.95,12,4,14,0.00
2013-2-15,38,30,25,31,24,18,90,80,65,29.89,29.11,10,2,13,0.01
2013-2-16,31,22,12,20,12,-1,85,66,45,29.80,29.19,14,4,16,0.00
2013-2-17,26,18,10,9,4,-2,72,54,34,29.88,29.20,11,4,13,0.00
2013-2-18,51,34,10,33,17,1,73,51,37,29.70,29.29,21,5,23,0.01
2013-2-19,49,33,20,39,26,10,92,75,56,29.81,28.90,17,4,24,0.14
2013-2-20,26,20,16,14,9,5,75,60,43,29.82,29.27,12,2,12,0.00
2013-2-21,30,24,20,16,13,9,75,62,52,29.90,29.35,9,4,11,0.00
2013-2-22,42,32,25,38,27,13,95,81,60,29.72,29.12,11,4,14,0.05
2013-2-23,43,35,26,31,26,19,91,71,51,29.59,29.12,10,3,12,0.00
2013-2-24,35,32,26,22,18,16,75,58,52,29.75,29.06,10,4,12,0.00
2013-2-25,35,34,32,22,19,18,63,54,53,30.07,29.72,4,4,10,0.00
2013-2-26,42,38,32,42,32,20,98,80,52,29.82,29.36,11,5,19,0.65
2013-2-27,43,38,33,42,35,30,96,87,77,29.75,29.18,12,6,20,0.20
2013-2-28,37,34,32,32,30,27,90,84,76,29.93,29.18,14,4,16,0.05
2013-3-1,33,31,27,27,23,16,80,73,61,30.23,29.46,6,1,10,0.01
2013-3-2,31,27,26,22,18,16,76,70,64,30.27,29.49,10,2,13,0.00
2013-3-3,34,26,22,18,14,11,75,60,45,30.23,29.51,8,4,14,0.00
2013-3-4,33,22,22,18,11,11,62,62,54,30.01,29.84,1,0,2,0.00
2013-3-5,39,34,30,30,25,18,90,68,54,29.81,29.36,7,3,10,0.06
2013-3-6,41,34,31,34,29,25,94,82,71,30.16,29.06,10,3,12,0.12
2013-3-7,44,36,32,30,26,25,76,69,53,30.20,29.61,8,4,12,0.00
2013-3-8,50,35,26,29,24,19,80,66,37,30.44,29.74,8,2,8,0.00
2013-3-9,59,41,23,31,26,19,89,59,33,30.16,29.68,8,2,9,0.00
2013-3-10,72,58,46,40,33,28,63,40,23,29.87,29.47,13,4,17,0.00
2013-3-11,62,50,41,52,45,35,99,84,36,29.75,29.07,12,4,14,0.57
2013-3-12,40,36,29,36,31,28,98,81,69,29.95,29.31,10,4,13,0.00
2013-3-13,36,30,27,32,23,16,99,76,58,30.12,29.27,18,4,21,0.01
2013-3-14,45,32,22,24,18,14,74,58,39,30.01,29.56,13,4,14,0.01
2013-3-15,52,39,25,42,32,18,99,76,57,29.84,29.43,10,3,44,0.14
2013-3-16,50,41,32,47,39,28,99,94,85,29.96,29.20,15,4,15,0.12
2013-3-17,38,34,31,29,26,24,87,74,60,30.04,29.44,7,3,10,0.00
2013-3-18,50,40,32,49,38,24,99,93,70,29.67,29.02,11,5,16,0.80
2013-3-19,40,34,28,35,22,15,91,62,42,29.85,29.20,20,7,23,0.01
2013-3-20,37,30,23,18,13,8,61,48,41,29.76,29.32,14,6,18,0.00
2013-3-21,33,25,18,20,12,8,73,59,44,29.84,29.19,13,5,13,0.00
2013-3-22,46,31,18,21,15,10,79,54,27,29.90,29.30,13,4,14,0.00
2013-3-23,52,34,18,26,19,12,85,59,28,29.81,29.29,11,2,11,0.00
2013-3-24,38,34,30,28,22,18,87,62,46,29.44,29.12,9,5,12,0.00
2013-3-25,38,33,30,32,30,28,95,89,75,29.62,28.76,13,3,15,0.08
2013-3-26,46,36,32,32,28,22,93,75,42,29.99,29.30,14,6,17,0.04
2013-3-27,47,38,33,30,26,21,80,63,41,30.13,29.54,14,6,17,0.00
2013-3-28,52,40,30,30,24,20,72,55,36,30.12,29.60,11,4,15,0.00
2013-3-29,57,40,23,32,25,19,90,58,31,30.17,29.66,11,2,17,0.00
2013-3-30,62,43,23,33,25,20,94,57,24,29.88,29.55,6,2,6,0.00
2013-3-31,60,49,40,48,41,27,99,76,52,29.65,29.21,12,3,15,0.05
2013-4-1,47,40,31,43,24,13,97,54,28,29.82,29.33,17,7,19,0.00
2013-4-2,47,33,18,21,14,10,81,48,25,30.12,29.44,16,4,16,0.00
2013-4-3,51,36,22,17,13,8,63,41,23,30.00,29.57,14,4,17,0.00
2013-4-4,54,32,24,16,12,10,62,47,20,29.87,29.56,6,1,7,0.00
2013-4-5,62,43,25,35,24,18,80,51,25,29.95,29.28,11,3,11,0.00
2013-4-6,63,50,30,24,18,8,63,29,19,29.95,29.55,10,4,12,0.00
2013-4-7,77,63,53,46,38,18,64,42,24,29.73,29.30,14,6,20,0.00
2013-4-8,73,62,48,56,50,41,97,67,48,29.62,29.33,16,4,19,0.00
2013-4-9,84,68,51,59,55,51,99,68,40,29.74,29.47,15,4,23,0.00
2013-4-10,84,70,58,66,61,56,99,75,52,29.76,29.49,18,6,32,0.18
2013-4-11,66,58,49,64,57,49,99,97,89,29.70,29.36,8,2,18,0.73
2013-4-12,58,49,43,58,45,34,99,88,63,29.73,29.14,11,4,14,0.19
2013-4-13,52,44,32,40,36,30,91,74,59,29.97,29.30,12,5,15,0.00
2013-4-14,70,51,32,43,37,30,99,65,35,29.97,29.55,8,2,9,0.00
2013-4-15,74,62,47,55,49,39,83,62,52,29.71,29.47,12,4,13,0.00
2013-4-16,79,62,55,65,57,53,99,84,57,30.07,29.55,14,5,14,0.22
2013-4-17,69,60,52,61,56,51,99,88,73,29.99,29.68,6,3,17,0.07
2013-4-18,86,72,60,66,59,54,98,68,37,29.67,29.38,21,8,26,0.04
2013-4-19,74,52,40,61,43,31,99,72,53,29.70,29.17,21,8,22,0.35
2013-4-20,50,40,32,34,28,24,90,65,38,30.33,29.43,15,6,18,0.04
2013-4-21,60,43,25,32,25,20,90,53,26,30.29,29.87,8,2,11,0.00
2013-4-22,75,53,31,43,33,25,80,51,24,30.05,29.73,8,2,11,0.00
2013-4-23,74,60,42,51,41,30,81,52,31,29.93,29.59,13,4,16,0.14
2013-4-24,63,50,31,58,46,31,99,89,64,30.11,29.37,16,4,17,0.61
2013-4-25,58,44,28,42,33,24,99,70,40,30.14,29.65,17,4,17,0.01
2013-4-26,69,48,27,43,31,25,99,57,23,30.28,29.80,6,1,9,0.00
2013-4-27,77,57,34,48,37,30,99,57,21,30.04,29.65,10,3,13,0.07
2013-4-28,68,58,53,62,55,46,99,91,70,29.99,29.47,8,3,10,0.48
2013-4-29,68,60,52,59,56,51,99,88,62,29.88,29.65,8,2,8,0.20
2013-4-30,83,63,44,59,53,44,99,74,41,30.11,29.67,8,2,11,0.00
2013-5-1,87,68,50,62,55,49,99,69,34,30.30,29.92,7,2,64,0.01
2013-5-2,80,68,54,57,54,50,89,63,45,30.22,30.03,9,3,9,0.00
2013-5-3,83,70,55,58,47,32,99,51,18,30.11,29.93,10,4,14,0.00
2013-5-4,76,65,56,49,45,39,67,48,36,29.98,29.76,14,4,19,0.00
2013-5-5,77,65,50,47,41,28,82,45,25,29.91,29.69,8,3,11,0.00
2013-5-6,72,62,55,59,49,28,95,65,26,29.93,29.67,6,2,8,0.06
2013-5-7,75,62,54,64,58,54,99,86,56,30.07,29.69,10,2,13,0.20
2013-5-8,79,63,52,58,55,51,99,77,43,29.99,29.75,7,2,10,0.01
2013-5-9,86,68,49,60,53,47,99,67,26,30.11,29.74,8,2,11,0.00
2013-5-10,74,63,58,66,61,58,99,93,71,30.02,29.80,8,3,24,0.72
2013-5-11,62,53,46,61,50,41,99,89,69,29.89,29.68,15,4,18,0.02
2013-5-12,56,45,35,40,34,30,99,67,38,30.03,29.58,14,5,17,0.00
2013-5-13,63,47,32,42,32,25,99,61,25,29.95,29.71,11,3,11,0.00
2013-5-14,80,58,34,58,44,33,99,65,36,30.00,29.64,13,4,13,0.00
2013-5-15,90,77,65,63,60,57,84,57,34,30.05,29.65,18,5,18,0.00
2013-5-16,86,73,58,64,58,47,99,65,32,30.15,29.85,10,2,10,0.12
2013-5-17,71,60,54,63,59,53,99,96,61,30.09,29.92,3,1,11,0.00
2013-5-18,88,69,58,66,61,55,99,79,44,29.93,29.74,6,1,7,0.07
2013-5-19,90,73,58,69,64,58,99,77,43,29.88,29.66,11,2,11,0.00
2013-5-20,91,77,64,73,68,63,99,77,46,29.89,29.63,11,3,16,0.00
2013-5-21,92,79,68,70,65,62,97,67,40,29.83,29.63,11,4,16,0.00
2013-5-22,85,74,64,67,64,61,97,72,49,29.77,29.54,15,6,19,0.04
2013-5-23,77,63,49,65,59,47,99,87,55,29.78,29.51,16,6,17,0.33
2013-5-24,63,51,41,46,40,37,96,70,39,29.93,29.65,14,5,18,0.00
2013-5-25,69,52,33,50,40,33,99,68,37,29.99,29.62,9,2,11,0.00
2013-5-26,77,56,36,47,38,27,99,60,18,29.82,29.64,8,2,11,0.00
2013-5-27,80,59,45,57,49,38,93,71,45,29.76,29.49,11,2,17,0.20
2013-5-28,86,74,62,70,62,54,99,69,45,29.74,29.44,15,5,21,0.18
2013-5-29,90,79,69,64,61,51,73,56,27,30.03,29.69,14,5,19,0.00
2013-5-30,90,76,64,69,65,62,98,70,43,30.03,29.82,13,3,14,0.00
2013-5-31,88,74,66,72,66,62,99,79,47,30.03,29.77,22,4,26,0.18
2013-6-1,84,75,66,70,68,66,99,81,58,29.77,29.50,15,6,18,0.07
2013-6-2,78,72,66,69,63,59,99,76,54,29.84,29.64,11,5,17,0.01
2013-6-3,69,61,51,60,54,49,93,77,55,29.89,29.68,8,3,10,0.00
2013-6-4,78,61,41,51,47,41,99,65,33,29.83,29.64,8,2,11,0.00
2013-6-5,84,69,51,59,53,46,85,59,36,29.79,29.62,5,2,8,0.00
2013-6-6,68,63,58,66,61,56,99,94,67,29.72,29.50,8,2,11,0.31
2013-6-7,66,60,56,58,57,54,99,90,75,29.70,29.42,8,2,11,0.00
2013-6-8,78,64,51,60,55,50,99,77,45,29.94,29.47,5,1,9,0.00
2013-6-9,85,73,60,67,62,58,94,72,43,29.88,29.69,10,2,12,0.01
2013-6-10,82,70,66,70,66,62,99,88,58,29.82,29.60,9,3,13,0.67
2013-6-11,86,74,63,68,65,62,99,77,50,30.02,29.63,11,4,16,0.00
2013-6-12,90,79,64,75,70,63,99,77,59,29.94,29.49,9,3,11,0.00
2013-6-13,82,71,63,74,63,53,99,78,45,29.73,29.21,14,5,30,0.48
2013-6-14,78,68,56,62,58,56,99,74,52,30.05,29.61,9,3,17,0.00
2013-6-15,79,69,50,65,58,49,99,71,47,29.95,29.73,6,3,8,0.00
2013-6-16,79,79,79,60,60,60,52,52,52,29.73,29.73,4,4,7,0.00
2013-6-17,79,79,79,60,60,60,52,52,52,29.73,29.73,4,4,7,0.00
2013-6-18,79,79,79,60,60,60,52,52,52,29.73,29.73,4,4,7,0.00
2013-6-22,72,70,69,70,69,69,99,97,93,30.16,30.00,8,2,15,0.02
2013-6-23,91,77,64,75,67,62,99,74,44,30.06,29.75,14,3,22,0.00
2013-6-24,88,77,62,72,68,62,99,74,50,30.18,29.86,10,3,12,0.00
2013-6-25,91,79,70,75,71,69,96,79,54,30.00,29.74,11,4,16,0.00
2013-6-26,88,75,66,76,70,65,99,85,61,29.89,29.64,10,3,15,0.77
2013-6-27,86,75,68,74,70,68,99,86,60,29.83,29.55,14,3,14,0.00
2013-6-28,83,75,68,72,65,57,97,74,52,29.78,29.60,11,4,24,0.00
2013-6-29,76,75,62,62,58,58,98,58,54,30.01,29.60,4,4,10,0.69
2013-6-30,83,69,60,70,65,60,99,87,61,30.26,29.89,8,2,13,0.00
2013-7-1,79,70,65,71,67,63,99,89,70,30.42,30.03,8,2,11,0.14
2013-7-2,84,74,67,71,68,66,99,81,59,30.53,30.17,7,2,8,0.01
2013-7-3,86,74,66,72,68,65,99,84,55,30.74,30.31,7,2,7,0.00
2013-7-4,76,72,70,72,70,69,99,93,84,30.70,30.49,9,2,9,0.09
2013-7-5,81,72,67,71,69,67,99,91,69,30.67,30.36,5,2,8,0.41
2013-7-6,84,73,70,77,71,68,99,93,69,30.72,30.44,6,2,11,1.25
2013-7-7,83,72,64,70,67,62,99,85,58,30.60,30.32,10,3,13,0.46
2013-7-8,83,71,64,77,69,63,99,94,77,30.52,30.31,4,2,8,0.66
2013-7-9,90,77,71,78,74,70,99,90,67,30.34,30.10,13,3,17,0.24
2013-7-10,91,75,67,79,72,66,99,90,65,30.43,30.05,11,3,14,0.25
2013-7-11,81,71,61,69,64,58,99,80,52,30.56,30.18,16,2,16,0.01
2013-7-12,82,70,57,66,61,57,99,77,48,30.52,30.30,11,2,11,0.00
2013-7-13,88,74,62,70,66,61,99,78,52,30.66,30.34,8,2,8,0.00
2013-7-14,92,80,66,75,71,66,99,78,54,30.63,30.31,11,2,11,0.00
2013-7-15,93,82,72,74,72,70,96,75,49,30.71,30.34,5,1,7,0.00
2013-7-16,95,82,70,78,74,69,99,77,49,30.53,30.26,6,1,8,0.00
2013-7-17,94,83,72,77,74,71,99,75,49,30.44,30.19,9,2,10,0.00
2013-7-18,96,84,72,78,74,71,98,74,48,30.40,30.08,7,2,10,0.00
2013-7-19,92,82,71,76,74,71,98,78,58,30.11,29.99,12,3,12,0.00
2013-7-20,80,76,71,76,73,69,96,92,85,30.12,29.88,6,2,14,0.30
2013-7-23,86,78,72,74,69,67,85,73,62,30.01,29.92,8,4,14,0.06
2013-7-24,76,69,59,68,60,55,94,76,54,30.36,29.95,11,3,14,0.00
2013-7-25,81,66,52,60,55,51,99,71,41,30.40,30.13,8,2,11,0.00
2013-7-26,83,69,53,64,58,52,99,73,43,30.48,30.17,11,2,11,0.00
2013-7-27,78,68,63,70,64,59,99,88,56,30.41,30.17,11,2,12,0.38
2013-7-28,73,63,52,60,55,51,99,75,51,30.42,30.12,11,3,14,0.00
2013-7-29,76,67,58,59,56,54,96,70,50,30.59,30.18,11,3,12,0.00
2013-7-30,81,68,54,66,59,53,99,78,49,30.58,30.36,5,1,6,0.00
2013-7-31,78,69,64,69,66,63,99,91,73,30.50,30.22,8,2,12,0.08
2013-8-1,82,72,67,68,66,62,99,83,52,30.35,30.03,11,3,14,0.07
2013-8-2,80,70,56,66,61,56,99,77,49,30.16,30.06,8,2,13,0.00
2013-8-3,83,72,62,70,65,61,99,82,52,30.14,30.06,10,2,10,0.13
2013-8-4,78,68,58,63,59,55,99,76,46,30.42,30.11,11,3,13,0.00
2013-8-5,79,65,50,63,57,50,99,78,49,30.37,30.21,4,1,7,0.04
2013-8-6,86,73,62,65,61,58,93,69,45,30.42,30.16,8,2,11,0.00
2013-8-7,87,76,66,75,70,64,96,83,63,30.42,30.12,9,2,10,0.00
2013-8-8,85,74,69,77,72,69,99,94,73,30.17,29.99,11,1,11,2.28
2013-8-9,81,71,65,70,67,64,99,89,58,30.19,30.11,8,2,10,0.39
2013-8-10,85,74,64,72,66,63,99,80,51,30.39,30.15,7,1,9,0.00
2013-8-11,85,73,62,73,67,62,99,83,58,30.57,30.26,8,2,11,0.02
2013-8-12,86,74,60,72,66,60,99,78,53,30.50,30.22,8,2,10,0.00
2013-8-13,76,69,55,68,62,51,99,80,50,30.42,30.16,13,4,17,0.00
2013-8-14,70,59,50,55,52,49,99,79,56,30.46,30.24,8,2,10,0.00
2013-8-15,75,55,46,60,51,45,99,88,49,30.45,30.33,3,1,5,0.00
2013-8-16,80,65,50,60,56,50,99,75,47,30.58,30.33,4,1,4,0.00
2013-8-17,86,69,56,64,59,55,99,74,46,30.67,30.44,5,1,5,0.00
2013-8-18,82,68,56,68,62,56,99,84,57,30.63,30.34,5,1,8,0.01
2013-8-19,86,72,61,70,63,60,99,78,43,30.51,30.32,5,1,7,0.00
2013-8-20,87,72,57,70,63,57,99,78,45,30.62,30.34,4,1,7,0.00
2013-8-21,87,72,59,71,66,59,99,82,55,30.62,30.47,7,2,8,0.00
2013-8-22,85,73,63,72,68,61,99,85,63,30.69,30.37,9,3,9,0.00
2013-8-23,86,74,64,70,66,58,99,78,49,30.84,30.43,6,2,6,0.00
2013-8-24,87,70,54,65,59,53,99,73,40,30.82,30.54,5,1,6,0.00
2013-8-25,88,72,56,67,60,55,99,72,38,30.80,30.55,9,2,9,0.00
2013-8-26,88,74,58,71,66,58,99,76,49,30.70,30.18,8,2,11,0.00
2013-8-27,87,76,67,76,72,67,99,87,64,30.47,30.14,8,2,8,0.00
2013-8-28,86,80,72,77,74,71,96,83,67,30.19,29.97,15,4,15,0.00
2013-8-29,89,76,68,74,71,68,99,86,54,30.25,30.03,4,1,7,0.00
2013-8-30,90,76,63,73,68,62,99,78,49,30.21,30.00,11,2,12,0.00
2013-8-31,89,76,68,77,72,68,99,87,62,30.15,29.94,7,2,10,0.22
2013-9-1,87,76,66,72,70,66,99,84,59,30.26,29.91,8,2,10,0.00
2013-9-2,84,74,66,73,69,60,99,84,66,30.26,29.91,13,3,15,0.00
2013-9-3,69,61,52,60,56,52,99,84,65,30.21,30.01,9,3,14,0.00
2013-9-4,83,65,47,62,55,47,99,75,42,30.30,30.15,8,2,11,0.00
2013-9-5,81,66,55,67,57,47,99,76,39,30.46,30.30,7,2,7,0.00
2013-9-6,80,62,46,57,49,41,99,69,26,30.59,30.33,3,1,3,0.00
2013-9-7,86,71,48,67,60,48,99,71,48,30.38,30.16,5,1,8,0.00
2013-9-8,83,74,66,72,68,64,97,81,67,30.64,30.22,6,2,8,0.00
2013-9-9,90,74,60,71,66,60,99,78,49,30.57,30.12,8,2,10,0.00
2013-9-10,96,84,73,76,73,70,91,71,47,30.47,30.13,11,4,13,0.00
2013-9-11,92,78,72,76,72,67,92,82,57,30.48,30.12,9,2,12,0.00
2013-9-12,79,71,61,72,68,60,99,90,59,30.37,30.08,8,2,17,0.00
2013-9-13,66,58,50,60,52,47,99,81,61,30.47,30.31,11,4,15,0.00
2013-9-14,71,55,40,51,47,40,99,77,41,30.45,30.31,7,1,8,0.00
2013-9-15,76,55,42,55,48,42,99,80,41,30.34,30.22,5,2,8,0.00
2013-9-16,72,63,54,60,56,50,99,80,52,30.66,30.31,7,2,12,0.00
2013-9-17,76,59,44,56,51,43,99,78,46,30.65,30.45,4,1,5,0.00
2013-9-18,80,64,51,65,58,51,99,83,53,30.50,30.30,6,2,7,0.12
2013-9-19,66,66,66,66,65,65,99,98,96,30.46,30.41,4,2,7,0.00
2013-9-20,88,74,66,72,68,66,99,86,53,30.42,30.25,11,4,11,0.41
2013-9-21,73,66,56,68,60,50,99,84,53,30.39,30.19,13,3,14,1.22
2013-9-22,66,56,48,50,48,45,98,77,48,30.29,30.16,8,3,8,0.00
2013-9-23,68,53,40,54,46,40,99,80,50,30.30,30.20,6,1,8,0.00
2013-9-24,72,54,38,52,46,38,99,81,44,30.59,30.17,5,1,5,0.00
2013-9-25,65,48,44,58,47,44,99,97,76,30.21,30.07,2,0,2,0.00
2013-10-2,66,66,66,66,66,65,99,99,98,30.20,30.18,0,0,0,0.00
2013-10-3,80,69,64,72,68,63,99,94,72,30.23,30.12,5,1,11,0.32
2013-10-4,83,69,61,71,67,61,99,93,63,30.28,30.17,8,1,9,0.54
2013-10-5,81,70,64,76,69,63,99,95,73,30.25,30.14,5,1,9,0.28
2013-10-6,77,67,52,70,65,51,99,94,71,30.22,29.89,13,4,54,0.76
2013-10-7,62,52,44,53,47,44,99,84,54,30.17,29.84,11,3,14,0.14
2013-10-8,70,52,37,56,45,37,99,81,42,30.34,30.05,5,1,8,0.00
2013-10-9,74,54,41,54,46,41,99,79,42,30.22,30.01,4,1,8,0.00
2013-10-10,77,55,39,55,47,39,99,80,35,30.31,29.99,5,1,8,0.00
2013-10-11,80,59,43,58,49,43,99,76,35,30.07,29.96,4,1,6,0.00
2013-10-12,76,61,49,63,56,48,99,86,63,30.13,29.99,6,1,8,0.00
2013-10-13,67,61,52,62,58,51,99,92,78,30.34,30.13,8,2,11,0.01
2013-10-14,72,57,46,56,50,46,99,81,46,30.32,30.09,5,2,8,0.01
2013-10-15,67,57,46,64,56,45,99,95,87,30.28,29.93,6,2,7,0.00
2013-10-16,67,62,50,65,60,47,99,91,73,30.01,29.87,9,3,11,0.08
2013-10-17,54,47,38,51,45,37,99,93,84,30.02,29.67,8,2,11,0.09
2013-10-18,65,52,42,51,44,42,99,79,46,30.14,29.82,11,2,13,0.01
2013-10-19,48,45,42,46,44,40,98,94,85,29.99,29.68,10,2,12,0.18
2013-10-20,63,49,37,44,41,36,99,76,44,30.05,29.73,13,4,15,0.01
2013-10-21,68,54,41,51,42,39,94,69,38,29.95,29.68,14,5,18,0.04
2013-10-22,52,44,33,47,32,27,96,66,38,30.17,29.77,11,3,13,0.06
2013-10-23,46,39,33,41,36,33,99,90,65,30.05,29.55,10,3,14,0.27
2013-10-24,47,38,30,37,32,28,99,80,51,30.28,29.75,13,3,13,0.00
2013-10-25,50,38,27,37,30,25,97,74,47,30.46,30.03,10,2,11,0.00
2013-10-26,48,41,33,38,30,26,84,66,51,30.14,29.84,14,5,18,0.00
2013-10-27,57,41,28,42,33,27,99,77,40,30.08,29.83,7,1,11,0.05
2013-10-28,61,43,28,44,34,27,99,75,34,30.26,29.80,4,1,7,0.00
2013-10-29,60,45,32,48,39,31,99,82,49,30.52,30.05,4,1,4,0.00
2013-10-30,66,55,45,59,51,42,99,86,73,30.17,29.84,6,2,8,0.00
2013-10-31,66,61,59,62,59,57,99,94,76,29.94,29.28,18,6,21,0.80
2013-11-1,63,55,50,62,49,46,99,81,62,29.71,29.24,16,5,23,0.14
2013-11-2,51,48,43,46,44,42,99,86,76,29.95,29.54,8,3,10,0.02
2013-11-3,55,44,37,42,38,32,99,82,51,30.43,29.85,7,1,8,0.00
2013-11-4,55,45,35,39,34,28,85,67,45,30.42,30.05,6,2,9,0.00
2013-11-5,62,52,46,45,42,39,79,67,52,30.45,30.11,7,2,8,0.00
2013-11-6,65,56,48,60,48,38,99,76,54,30.16,29.72,13,5,19,0.28
2013-11-7,48,43,35,47,35,27,98,75,49,30.30,29.88,14,5,19,0.09
2013-11-8,46,37,30,36,31,27,94,80,55,30.51,29.95,6,2,13,0.00
2013-11-9,60,48,32,39,34,29,94,61,38,30.18,29.79,18,6,26,0.00
2013-11-10,47,42,28,41,32,26,90,69,51,30.26,29.78,14,4,21,0.00
2013-11-11,51,40,27,40,32,24,96,75,43,30.25,29.77,12,3,14,0.04
2013-11-12,34,29,25,31,22,17,96,76,65,30.62,29.98,12,2,15,0.08
2013-11-13,39,30,20,22,18,16,86,63,42,30.61,30.13,10,3,12,0.00
2013-11-14,52,39,26,26,21,18,76,52,27,30.46,29.93,14,5,16,0.00
2013-11-15,52,44,35,40,27,21,82,52,35,30.20,29.82,11,3,13,0.00
2013-11-16,59,52,42,54,48,39,91,86,81,30.16,29.85,12,3,12,0.00
2013-11-17,61,58,51,60,55,42,99,91,64,29.86,29.45,17,7,50,0.90
2013-11-18,52,45,35,42,35,26,85,71,50,30.10,29.62,14,6,24,0.00
2013-11-19,43,36,29,27,25,23,84,66,52,30.47,29.87,9,2,13,0.00
2013-11-20,49,37,24,30,26,20,88,66,48,30.37,29.91,9,2,9,0.00
2013-11-21,55,47,38,45,38,28,96,71,54,30.33,29.89,8,2,8,0.15
2013-11-22,52,46,35,51,44,27,99,93,71,30.25,29.91,16,3,17,0.22
2013-11-23,37,29,20,28,20,6,89,70,47,30.58,29.95,17,6,27,0.01
2013-11-24,26,20,15,9,5,0,73,54,33,30.70,30.15,14,4,15,0.00
2013-11-25,36,27,16,29,14,7,92,59,36,30.46,30.00,12,3,15,0.00
2013-11-26,34,32,30,32,30,28,95,91,86,30.25,29.78,4,1,6,0.04
2013-11-27,31,27,23,28,17,7,92,66,40,30.33,29.56,21,7,21,0.01
2013-11-28,30,26,20,20,16,12,78,66,51,30.44,29.93,11,2,13,0.00
2013-11-29,39,28,16,20,16,10,85,62,43,30.76,30.09,4,1,5,0.00
2013-11-30,45,32,23,30,23,16,82,70,51,30.43,29.94,7,1,9,0.00
2013-12-1,49,37,28,36,30,24,89,78,57,30.08,29.74,7,1,9,0.01
2013-12-2,42,37,32,36,33,30,91,86,77,30.04,29.55,3,0,6,0.02
2013-12-3,53,43,33,46,40,32,99,88,70,29.98,29.49,5,1,6,0.02
2013-12-4,61,54,44,53,49,41,94,83,74,29.73,29.46,10,2,12,0.01
2013-12-5,62,50,33,58,44,29,94,82,68,30.11,29.48,13,4,14,0.09
2013-12-6,33,29,26,29,26,22,91,88,84,30.38,29.76,0,0,0,0.00
2013-12-7,29,23,14,22,14,8,86,68,48,30.65,30.02,0,0,0,0.00
2013-12-8,31,24,14,29,18,8,94,77,64,30.38,29.77,0,0,0,0.00
2013-12-9,33,30,25,32,25,16,96,81,69,30.22,29.55,10,2,13,0.00
2013-12-10,27,22,18,17,11,6,83,63,44,30.31,29.73,11,4,17,0.00
2013-12-11,32,21,12,19,11,4,73,65,53,30.37,29.89,9,4,15,0.00
2013-12-12,20,15,8,3,-1,-7,68,49,31,30.46,29.98,9,3,15,0.00
2013-12-13,36,25,13,25,11,0,76,56,41,30.29,29.81,7,2,8,0.01
2013-12-14,37,33,30,35,31,26,96,92,81,29.95,29.50,9,1,10,0.15
2013-12-15,32,24,21,30,17,10,96,73,55,30.07,29.43,0,0,0,0.00
2013-12-16,28,23,18,24,15,11,86,72,64,30.08,29.68,0,0,0,0.00
2013-12-17,32,28,25,30,22,19,93,79,71,30.18,29.57,0,0,2,0.00
2013-12-18,31,27,23,21,17,12,83,66,51,30.20,29.73,10,2,11,0.00
2013-12-19,49,40,26,36,27,15,75,60,49,30.00,29.59,10,3,11,0.01
2013-12-20,57,52,47,55,44,32,97,74,52,29.87,29.51,11,6,17,0.05
2013-12-21,66,58,49,63,57,49,99,97,87,29.69,29.32,17,5,17,0.86
2013-12-22,64,54,40,62,49,39,99,84,64,29.85,29.29,19,6,19,0.64
2013-12-23,40,33,27,39,24,15,95,71,58,30.31,29.67,14,5,16,0.01
2013-12-24,27,16,9,18,6,0,82,64,51,30.50,29.84,10,4,18,0.00
2013-12-25,31,23,9,24,12,2,76,63,43,30.42,29.94,8,3,11,0.00
2013-12-26,38,32,28,25,19,11,77,60,33,30.19,29.69,17,4,17,0.00
2013-12-27,46,38,31,29,25,20,71,61,51,30.32,29.82,10,3,11,0.01
2013-12-28,52,41,32,34,29,25,78,63,49,30.25,29.72,11,3,13,0.00
2013-12-29,42,39,32,41,33,26,97,80,55,29.88,29.42,13,3,16,0.20
2013-12-30,32,26,23,26,17,14,78,69,60,30.30,29.63,11,2,17,0.00
2013-12-31,27,24,20,15,13,10,77,64,52,30.42,29.69,12,4,19,0.01
2014-1-1,39,29,19,28,22,12,81,73,62,30.20,29.75,4,1,7,0.00
2014-1-2,28,21,9,22,15,0,84,76,65,30.14,29.42,24,5,29,0.00